Time;durP1;ratioP1;P1;durP2;ratioP2;P2;SDS_P1;SDS_P2;PMS_P1;PMS_P2;Temp;Humidity;BMP_temperature;BMP_pressure;BME280_temperature;BME280_humidity;BME280_pressure;Samples;Min_cycle;Max_cycle;Signal;HPM_P1;HPM_P2
2023/09/28 00:01:00;;;;;;;8.18;4.20;;;;;;;17.48;100.00;101146.09;5112256;28;20052;-52
2023/09/28 00:03:30;;;;;;;9.05;3.50;;;;;;;17.47;100.00;101141.75;5112312;28;20040;-53
2023/09/28 00:05:59;;;;;;;7.15;3.47;;;;;;;17.45;100.00;101141.91;5111645;28;20477;-54
2023/09/28 00:08:26;;;;;;;8.23;3.60;;;;;;;17.50;100.00;101134.34;5112261;28;20051;-54
2023/09/28 00:10:56;;;;;;;9.27;3.75;;;;;;;17.45;100.00;101144.56;5110151;28;20047;-54
2023/09/28 00:13:24;;;;;;;7.10;3.55;;;;;;;17.44;100.00;101150.84;5111662;28;20043;-55
2023/09/28 00:15:53;;;;;;;7.15;3.67;;;;;;;17.42;100.00;101175.88;5114238;28;20059;-53
2023/09/28 00:18:21;;;;;;;6.25;3.58;;;;;;;17.34;100.00;101166.78;5115186;28;20136;-54
2023/09/28 00:20:49;;;;;;;9.00;4.10;;;;;;;17.33;100.00;101159.78;5114834;28;20100;-52
2023/09/28 00:23:17;;;;;;;7.40;4.00;;;;;;;17.38;100.00;101173.50;5113462;28;20043;-53
2023/09/28 00:25:46;;;;;;;10.65;4.68;;;;;;;17.37;100.00;101171.81;5109957;28;20505;-52
2023/09/28 00:28:14;;;;;;;8.82;3.97;;;;;;;17.38;100.00;101183.28;5111725;28;20052;-53
2023/09/28 00:30:42;;;;;;;6.68;3.50;;;;;;;17.34;100.00;101180.06;5114381;28;20104;-50
2023/09/28 00:33:11;;;;;;;8.77;3.55;;;;;;;17.30;100.00;101185.78;5114731;28;20375;-51
2023/09/28 00:35:39;;;;;;;5.78;3.30;;;;;;;17.26;100.00;101174.59;5113640;28;20472;-52
2023/09/28 00:38:07;;;;;;;9.40;4.65;;;;;;;17.28;100.00;101185.09;5111561;28;20048;-53
2023/09/28 00:40:36;;;;;;;5.82;3.70;;;;;;;17.22;100.00;101191.78;5109918;28;20051;-53
2023/09/28 00:43:04;;;;;;;6.70;3.60;;;;;;;17.13;100.00;101195.25;5111072;28;21064;-50
2023/09/28 00:45:32;;;;;;;5.78;3.25;;;;;;;17.10;100.00;101190.19;5111701;27;20407;-51
2023/09/28 00:48:05;;;;;;;8.85;3.95;;;;;;;17.08;100.00;101195.63;5112008;28;20416;-51
2023/09/28 00:50:34;;;;;;;7.55;3.35;;;;;;;17.03;100.00;101185.41;5112608;27;20067;-52
2023/09/28 00:53:04;;;;;;;7.72;3.63;;;;;;;17.04;100.00;101186.25;5111088;28;20047;-52
2023/09/28 00:55:33;;;;;;;6.60;3.83;;;;;;;17.01;100.00;101186.53;5109728;28;20063;-51
2023/09/28 00:58:02;;;;;;;9.77;3.67;;;;;;;16.96;100.00;101181.63;5110850;28;20043;-53
2023/09/28 01:00:34;;;;;;;8.05;3.75;;;;;;;16.94;100.00;101177.41;5111550;28;20417;-52
2023/09/28 01:03:05;;;;;;;7.38;3.38;;;;;;;16.87;100.00;101183.22;5111007;28;20038;-49
2023/09/28 01:05:39;;;;;;;8.20;3.65;;;;;;;16.85;100.00;101176.34;5113526;28;20051;-52
2023/09/28 01:08:07;;;;;;;9.65;3.95;;;;;;;16.79;100.00;101174.25;5114391;28;20048;-53
2023/09/28 01:10:40;;;;;;;8.90;3.80;;;;;;;16.76;100.00;101167.38;5114487;28;20035;-53
2023/09/28 01:13:11;;;;;;;9.48;3.60;;;;;;;16.73;100.00;101167.66;5113278;28;20048;-52
2023/09/28 01:15:39;;;;;;;8.38;3.65;;;;;;;16.70;100.00;101168.75;5111102;28;20056;-53
2023/09/28 01:18:09;;;;;;;7.43;3.70;;;;;;;16.70;100.00;101175.84;5110715;28;20064;-50
2023/09/28 01:20:40;;;;;;;7.47;3.65;;;;;;;16.65;100.00;101189.53;5110237;28;20061;-50
2023/09/28 01:23:09;;;;;;;7.40;3.72;;;;;;;16.62;100.00;101183.63;5110888;27;20051;-52
2023/09/28 01:25:39;;;;;;;7.65;3.60;;;;;;;16.65;100.00;101188.72;5109485;28;20120;-53
2023/09/28 01:28:07;;;;;;;6.65;3.75;;;;;;;16.59;100.00;101179.44;5110965;28;20067;-54
2023/09/28 01:30:36;;;;;;;6.90;3.90;;;;;;;16.56;100.00;101195.63;5110728;28;20069;-52
2023/09/28 01:33:04;;;;;;;8.32;3.92;;;;;;;16.46;100.00;101192.09;5109994;28;20039;-51
2023/09/28 01:35:32;;;;;;;7.80;3.60;;;;;;;16.41;100.00;101194.28;5109748;28;20138;-50
2023/09/28 01:38:09;;;;;;;6.45;3.40;;;;;;;16.37;100.00;101181.28;5110335;28;20451;-49
2023/09/28 01:40:39;;;;;;;7.40;3.70;;;;;;;16.37;100.00;101186.59;5108620;27;20556;-52
2023/09/28 01:43:07;;;;;;;9.05;4.05;;;;;;;16.33;100.00;101186.97;5110079;28;20087;-52
2023/09/28 01:45:35;;;;;;;6.72;3.90;;;;;;;16.24;100.00;101188.59;5110731;28;20067;-52
2023/09/28 01:48:06;;;;;;;7.07;3.63;;;;;;;16.25;100.00;101189.41;5110141;28;20383;-52
2023/09/28 01:50:34;;;;;;;7.90;3.90;;;;;;;16.22;100.00;101190.50;5109861;28;20100;-53
2023/09/28 01:53:02;;;;;;;7.22;3.47;;;;;;;16.14;100.00;101190.31;5109932;28;20426;-53
2023/09/28 01:55:30;;;;;;;6.43;3.90;;;;;;;16.09;100.00;101193.38;5110452;28;20148;-51
2023/09/28 01:57:59;;;;;;;7.88;4.10;;;;;;;16.08;100.00;101198.81;5113125;28;20100;-52
2023/09/28 02:00:27;;;;;;;6.72;3.92;;;;;;;16.07;100.00;101202.41;5113035;28;20042;-49
2023/09/28 02:02:56;;;;;;;7.38;4.22;;;;;;;16.08;100.00;101198.81;5113082;28;20115;-50
2023/09/28 02:05:25;;;;;;;10.48;4.65;;;;;;;15.99;100.00;101200.38;5113251;28;20043;-52
2023/09/28 02:07:53;;;;;;;7.28;4.13;;;;;;;15.97;100.00;101205.81;5111260;28;20494;-53
2023/09/28 02:10:21;;;;;;;8.43;4.00;;;;;;;15.95;100.00;101209.56;5107642;28;20203;-53
2023/09/28 02:12:50;;;;;;;9.48;4.03;;;;;;;15.88;100.00;101218.03;5112306;28;20048;-51
2023/09/28 02:15:19;;;;;;;6.78;3.88;;;;;;;15.85;100.00;101220.09;5108811;28;20050;-53
2023/09/28 02:17:48;;;;;;;9.13;4.07;;;;;;;15.76;100.00;101216.38;5109563;28;20042;-52
2023/09/28 02:20:16;;;;;;;8.70;4.13;;;;;;;15.76;100.00;101212.84;5109281;28;20035;-51
2023/09/28 02:22:46;;;;;;;6.63;4.00;;;;;;;15.69;100.00;101210.72;5109969;28;20043;-52
2023/09/28 02:25:17;;;;;;;9.15;4.70;;;;;;;15.70;100.00;101215.03;5107882;28;20048;-53
2023/09/28 02:27:46;;;;;;;7.97;4.10;;;;;;;15.71;100.00;101224.66;5108620;28;20112;-54
2023/09/28 02:30:17;;;;;;;7.85;4.13;;;;;;;15.64;100.00;101218.19;5112533;28;20544;-53
2023/09/28 02:32:47;;;;;;;7.35;3.85;;;;;;;15.58;100.00;101216.00;5112487;28;20112;-53
2023/09/28 02:35:16;;;;;;;7.63;4.20;;;;;;;15.55;100.00;101219.75;5108505;28;20055;-52
2023/09/28 02:37:46;;;;;;;8.35;4.68;;;;;;;15.53;100.00;101226.16;5109402;28;20063;-50
2023/09/28 02:40:15;;;;;;;8.32;4.38;;;;;;;15.53;100.00;101224.34;5108043;28;20055;-50
2023/09/28 02:42:44;;;;;;;7.68;4.00;;;;;;;15.51;100.00;101233.38;5112524;28;20100;-50
2023/09/28 02:45:11;;;;;;;7.78;4.07;;;;;;;15.46;100.00;101224.94;5112190;28;20603;-52
2023/09/28 02:47:41;;;;;;;8.07;4.20;;;;;;;15.46;100.00;101222.31;5110308;28;20402;-49
2023/09/28 02:50:11;;;;;;;7.70;4.20;;;;;;;15.54;100.00;101228.69;5108691;28;20048;-52
2023/09/28 02:52:41;;;;;;;8.35;4.40;;;;;;;15.52;100.00;101225.31;5112043;28;20512;-53
2023/09/28 02:55:10;;;;;;;7.47;4.00;;;;;;;15.47;100.00;101226.66;5111668;28;20043;-50
2023/09/28 02:57:38;;;;;;;8.98;4.05;;;;;;;15.40;100.00;101231.59;5112496;28;20040;-50
2023/09/28 03:00:12;;;;;;;7.70;4.15;;;;;;;15.37;100.00;101237.97;5110253;28;20048;-51
2023/09/28 03:02:41;;;;;;;9.07;3.97;;;;;;;15.34;100.00;101230.28;5107794;28;20058;-51
2023/09/28 03:05:10;;;;;;;7.82;4.45;;;;;;;15.38;100.00;101228.22;5107296;28;20079;-53
2023/09/28 03:07:39;;;;;;;8.20;4.32;;;;;;;15.41;100.00;101222.69;5111387;28;20418;-50
2023/09/28 03:10:10;;;;;;;6.90;3.90;;;;;;;15.36;100.00;101228.34;5107046;28;20067;-55
2023/09/28 03:12:38;;;;;;;9.27;4.45;;;;;;;15.32;100.00;101232.19;5108941;28;20126;-54
2023/09/28 03:15:10;;;;;;;9.35;4.57;;;;;;;15.28;100.00;101228.09;5110775;28;20039;-51
2023/09/28 03:17:39;;;;;;;8.82;3.97;;;;;;;15.25;100.00;101238.94;5111755;28;20044;-50
2023/09/28 03:20:10;;;;;;;9.52;4.10;;;;;;;15.23;100.00;101240.03;5108780;28;20040;-52
2023/09/28 03:22:39;;;;;;;8.68;3.97;;;;;;;15.20;100.00;101236.66;5107824;28;20052;-52
2023/09/28 03:25:11;;;;;;;7.90;4.40;;;;;;;15.13;100.00;101238.09;5110827;28;20078;-54
2023/09/28 03:27:41;;;;;;;8.48;3.80;;;;;;;15.17;100.00;101244.00;5113506;28;20398;-52
2023/09/28 03:30:11;;;;;;;;;;;;;;;15.09;100.00;101243.75;5113867;28;20455;-54
2023/09/28 03:32:40;;;;;;;8.07;4.20;;;;;;;15.03;100.00;101251.22;5113513;28;20386;-54
2023/09/28 03:35:10;;;;;;;8.10;4.50;;;;;;;15.02;100.00;101254.84;5111954;27;20047;-53
2023/09/28 03:37:40;;;;;;;7.13;4.28;;;;;;;14.99;100.00;101255.06;5112866;28;20126;-53
2023/09/28 03:40:10;;;;;;;7.03;3.97;;;;;;;14.96;100.00;101252.66;5110909;28;20046;-52
2023/09/28 03:42:40;;;;;;;6.70;4.15;;;;;;;14.92;100.00;101260.97;5112731;28;20051;-51
2023/09/28 03:45:10;;;;;;;6.93;4.40;;;;;;;14.90;100.00;101261.06;5112866;28;20375;-51
2023/09/28 03:47:39;;;;;;;7.95;4.32;;;;;;;14.91;100.00;101273.34;5112972;28;20494;-53
2023/09/28 03:50:11;;;;;;;9.93;4.63;;;;;;;14.88;100.00;101282.38;5115793;27;20051;-52
2023/09/28 03:52:44;;;;;;;9.80;4.60;;;;;;;14.87;100.00;101277.19;5112964;28;20410;-53
2023/09/28 03:55:14;;;;;;;7.40;4.95;;;;;;;14.87;100.00;101263.97;5110288;28;20070;-51
2023/09/28 03:57:44;;;;;;;8.60;4.85;;;;;;;14.83;100.00;101276.59;5112678;28;20071;-53
2023/09/28 04:00:14;;;;;;;8.50;4.45;;;;;;;14.82;100.00;101274.03;5112161;28;20040;-50
2023/09/28 04:02:44;;;;;;;8.05;4.63;;;;;;;14.80;100.00;101276.81;5112883;28;20410;-50
2023/09/28 04:05:16;;;;;;;8.02;4.15;;;;;;;14.79;100.00;101277.81;5112027;28;20047;-52
2023/09/28 04:07:47;;;;;;;7.95;4.13;;;;;;;14.75;100.00;101296.66;5112757;28;20506;-51
2023/09/28 04:10:15;;;;;;;7.82;4.22;;;;;;;14.70;100.00;101297.84;5115227;27;20104;-52
2023/09/28 04:12:45;;;;;;;8.65;5.00;;;;;;;14.67;100.00;101305.19;5113636;27;20051;-53
2023/09/28 04:15:13;;;;;;;9.00;5.03;;;;;;;14.69;100.00;101300.63;5111587;28;20040;-53
2023/09/28 04:17:42;;;;;;;8.80;5.15;;;;;;;14.68;100.00;101299.78;5111747;28;20047;-54
2023/09/28 04:20:13;;;;;;;10.45;4.93;;;;;;;14.68;100.00;101298.94;5111359;28;20159;-52
2023/09/28 04:22:41;;;;;;;9.73;5.28;;;;;;;14.67;100.00;101303.38;5111327;28;20104;-51
2023/09/28 04:25:11;;;;;;;9.57;5.13;;;;;;;14.65;100.00;101300.00;5110090;28;20048;-52
2023/09/28 04:27:39;;;;;;;9.63;4.97;;;;;;;14.64;100.00;101308.94;5111718;27;20046;-53
2023/09/28 04:30:09;;;;;;;9.48;5.50;;;;;;;14.62;100.00;101302.84;5114054;28;20077;-52
2023/09/28 04:32:38;;;;;;;10.18;6.10;;;;;;;14.77;100.00;101298.25;5115075;28;20040;-49
2023/09/28 04:35:10;;;;;;;12.98;5.72;;;;;;;14.69;100.00;101305.91;5114724;27;20035;-52
2023/09/28 04:37:39;;;;;;;11.10;5.45;;;;;;;14.72;100.00;101305.69;5114072;28;20505;-52
2023/09/28 04:40:10;;;;;;;12.35;6.95;;;;;;;14.74;100.00;101302.91;5114701;28;20062;-51
2023/09/28 04:42:39;;;;;;;10.45;5.55;;;;;;;14.69;100.00;101306.75;5114758;28;20514;-51
2023/09/28 04:45:09;;;;;;;8.45;5.40;;;;;;;14.72;100.00;101299.56;5113944;28;20102;-52
2023/09/28 04:47:38;;;;;;;11.48;6.15;;;;;;;14.75;100.00;101300.19;5111724;28;20112;-53
2023/09/28 04:50:08;;;;;;;9.77;6.32;;;;;;;14.71;100.00;101296.03;5110804;27;20051;-53
2023/09/28 04:52:36;;;;;;;11.20;5.90;;;;;;;14.67;100.00;101298.09;5111661;28;20782;-53
2023/09/28 04:55:07;;;;;;;10.35;5.70;;;;;;;14.65;100.00;101299.16;5113025;28;20048;-51
2023/09/28 04:57:35;;;;;;;12.35;6.05;;;;;;;14.65;100.00;101299.16;5111925;28;20486;-51
2023/09/28 05:00:07;;;;;;;9.57;5.78;;;;;;;14.62;100.00;101305.50;5111062;28;20050;-51
2023/09/28 05:02:36;;;;;;;9.80;5.90;;;;;;;14.58;100.00;101313.81;5111407;28;20047;-54
2023/09/28 05:05:08;;;;;;;8.68;4.78;;;;;;;14.50;100.00;101322.28;5110891;28;20051;-51
2023/09/28 05:07:37;;;;;;;10.32;5.50;;;;;;;14.47;100.00;101314.59;5111462;28;20104;-51
2023/09/28 05:10:07;;;;;;;8.43;5.15;;;;;;;14.42;100.00;101322.03;5112721;28;20047;-53
2023/09/28 05:12:35;;;;;;;11.13;5.68;;;;;;;14.43;100.00;101315.78;5110901;28;20052;-51
2023/09/28 05:15:09;;;;;;;9.10;5.45;;;;;;;14.42;100.00;101314.09;5111124;28;20043;-51
2023/09/28 05:17:37;;;;;;;8.75;5.00;;;;;;;14.38;100.00;101329.34;5111149;28;20043;-52
2023/09/28 05:20:09;;;;;;;9.05;5.25;;;;;;;14.33;100.00;101342.06;5110509;28;20140;-51
2023/09/28 05:22:37;;;;;;;9.05;5.45;;;;;;;14.31;100.00;101338.69;5110776;28;20739;-52
2023/09/28 05:25:07;;;;;;;9.43;5.72;;;;;;;14.28;100.00;101339.75;5109271;28;20032;-53
2023/09/28 05:27:38;;;;;;;10.05;6.10;;;;;;;14.32;100.00;101338.56;5110777;27;20746;-51
2023/09/28 05:30:10;;;;;;;10.13;5.63;;;;;;;14.30;100.00;101345.78;5112679;28;20118;-51
2023/09/28 05:32:38;;;;;;;11.67;5.90;;;;;;;14.27;100.00;101355.75;5111431;28;20056;-53
2023/09/28 05:35:10;;;;;;;10.25;5.20;;;;;;;14.25;100.00;101349.69;5110267;28;21009;-52
2023/09/28 05:37:38;;;;;;;13.32;5.55;;;;;;;14.25;100.00;101362.94;5112208;28;20055;-51
2023/09/28 05:40:07;;;;;;;9.45;6.30;;;;;;;14.24;100.00;101362.09;5111037;28;20393;-53
2023/09/28 05:42:36;;;;;;;12.40;6.30;;;;;;;14.28;100.00;101360.91;5110516;28;20043;-51
2023/09/28 05:45:04;;;;;;;9.32;5.38;;;;;;;14.28;100.00;101368.03;5112541;28;20040;-49
2023/09/28 05:47:34;;;;;;;11.25;6.57;;;;;;;14.30;100.00;101368.75;5113203;28;20044;-53
2023/09/28 05:50:04;;;;;;;9.90;5.43;;;;;;;14.28;100.00;101379.44;5112252;28;20494;-54
2023/09/28 05:52:33;;;;;;;10.70;6.35;;;;;;;14.33;100.00;101379.94;5109871;28;20051;-54
2023/09/28 05:55:01;;;;;;;10.32;5.90;;;;;;;14.31;100.00;101389.78;5107821;28;20528;-53
2023/09/28 05:57:29;;;;;;;11.32;5.72;;;;;;;14.31;100.00;101395.06;5109252;28;20047;-53
2023/09/28 05:59:58;;;;;;;11.05;5.65;;;;;;;14.32;100.00;101406.53;5112415;28;20414;-51
2023/09/28 06:02:29;;;;;;;9.77;5.53;;;;;;;14.31;100.00;101405.66;5110014;28;20117;-52
2023/09/28 06:04:58;;;;;;;10.27;5.57;;;;;;;14.33;100.00;101409.06;5109532;27;20044;-51
2023/09/28 06:07:27;;;;;;;11.05;5.57;;;;;;;14.36;100.00;101411.47;5109219;28;20055;-52
2023/09/28 06:09:56;;;;;;;12.43;6.47;;;;;;;14.41;100.00;101413.81;5108183;28;20075;-50
2023/09/28 06:12:24;;;;;;;9.93;5.75;;;;;;;14.39;100.00;101421.00;5109392;28;20048;-51
2023/09/28 06:14:52;;;;;;;11.32;5.97;;;;;;;14.41;100.00;101421.75;5110037;28;20047;-52
2023/09/28 06:17:23;;;;;;;12.77;5.90;;;;;;;14.47;100.00;101420.44;5109586;28;20120;-51
2023/09/28 06:19:51;;;;;;;14.45;5.90;;;;;;;14.45;100.00;101428.50;5109619;28;20075;-51
2023/09/28 06:22:27;;;;;;;11.23;6.10;;;;;;;14.46;100.00;101431.97;5111877;28;20139;-51
2023/09/28 06:24:55;;;;;;;12.50;6.32;;;;;;;14.45;100.00;101427.63;5108831;28;20552;-52
2023/09/28 06:27:26;;;;;;;9.45;5.18;;;;;;;14.48;100.00;101428.28;5108994;28;20060;-50
2023/09/28 06:29:54;;;;;;;11.98;5.75;;;;;;;14.58;100.00;101431.09;5109580;28;20070;-51
2023/09/28 06:32:22;;;;;;;12.25;6.00;;;;;;;14.62;100.00;101432.56;5109417;28;20110;-49
2023/09/28 06:34:51;;;;;;;12.48;5.90;;;;;;;14.65;100.00;101429.72;5108465;28;20041;-49
2023/09/28 06:37:19;;;;;;;12.45;5.70;;;;;;;14.69;100.00;101431.16;5111641;28;20048;-52
2023/09/28 06:39:49;;;;;;;10.40;5.20;;;;;;;14.72;100.00;101426.63;5111223;28;20055;-51
2023/09/28 06:42:17;;;;;;;14.35;6.13;;;;;;;14.75;100.00;101421.09;5108543;28;20097;-52
2023/09/28 06:45:03;;;;;;;13.63;5.40;;;;;;;14.79;100.00;101422.56;5109649;28;20130;-52
2023/09/28 06:47:32;;;;;;;10.82;5.68;;;;;;;14.81;100.00;101416.19;5110151;28;20044;-52
2023/09/28 06:50:19;;;;;;;17.17;6.18;;;;;;;14.91;100.00;101426.09;5108589;28;20062;-50
2023/09/28 06:52:51;;;;;;;13.82;5.57;;;;;;;14.94;100.00;101436.47;5109511;28;20449;-50
2023/09/28 06:55:23;;;;;;;15.05;6.47;;;;;;;14.99;100.00;101429.88;5107225;28;20121;-49
2023/09/28 06:57:52;;;;;;;12.48;6.07;;;;;;;15.10;100.00;101431.72;5108634;28;20419;-51
2023/09/28 07:00:20;;;;;;;16.35;6.05;;;;;;;15.18;100.00;101434.63;5110572;28;20055;-52
2023/09/28 07:02:48;;;;;;;12.60;5.90;;;;;;;15.23;100.00;101436.94;5112015;28;20044;-50
2023/09/28 07:05:17;;;;;;;13.63;5.43;;;;;;;15.35;100.00;101443.09;5111065;28;20036;-50
2023/09/28 07:07:47;;;;;;;14.63;6.32;;;;;;;15.42;100.00;101446.13;5108811;28;20043;-49
2023/09/28 07:10:15;;;;;;;11.77;5.07;;;;;;;15.49;100.00;101457.97;5110953;28;20097;-52
2023/09/28 07:12:45;;;;;;;16.00;4.40;;;;;;;15.59;100.00;101458.94;5111915;28;20039;-52
2023/09/28 07:15:13;;;;;;;17.10;4.95;;;;;;;15.72;100.00;101472.13;5108524;28;20079;-48
2023/09/28 07:17:41;;;;;;;15.25;4.85;;;;;;;15.81;100.00;101478.53;5109112;28;20054;-52
2023/09/28 07:20:11;;;;;;;12.05;4.32;;;;;;;15.94;100.00;101479.28;5108853;28;20051;-52
2023/09/28 07:22:39;;;;;;;15.32;4.70;;;;;;;16.03;100.00;101475.91;5109048;28;20055;-51
2023/09/28 07:25:10;;;;;;;17.27;5.05;;;;;;;16.14;100.00;101476.88;5107779;28;20047;-54
2023/09/28 07:27:38;;;;;;;19.20;4.93;;;;;;;16.30;100.00;101482.63;5109050;28;20044;-54
2023/09/28 07:30:08;;;;;;;15.82;4.93;;;;;;;16.44;100.00;101484.19;5107977;28;20051;-53
2023/09/28 07:32:37;;;;;;;16.75;4.75;;;;;;;16.57;100.00;101497.34;5112168;28;20097;-53
2023/09/28 07:35:09;;;;;;;17.77;4.00;;;;;;;16.78;100.00;101486.78;5110124;28;20067;-52
2023/09/28 07:37:40;;;;;;;15.25;3.67;;;;;;;16.96;100.00;101496.91;5108759;28;20090;-53
2023/09/28 07:40:12;;;;;;;15.95;3.63;;;;;;;17.11;100.00;101489.47;5110962;28;20043;-52
2023/09/28 07:42:43;;;;;;;15.52;3.80;;;;;;;17.20;100.00;101488.72;5108650;28;20055;-51
2023/09/28 07:45:13;;;;;;;20.50;4.80;;;;;;;17.51;100.00;101488.81;5107988;28;20042;-54
2023/09/28 07:47:42;;;;;;;16.90;4.15;;;;;;;17.53;100.00;101492.19;5109064;28;20051;-51
2023/09/28 07:50:14;;;;;;;17.95;3.90;;;;;;;17.73;100.00;101501.97;5108366;28;20052;-52
2023/09/28 07:52:43;;;;;;;16.58;3.85;;;;;;;17.92;100.00;101505.75;5108856;28;20495;-51
2023/09/28 07:55:12;;;;;;;21.13;3.63;;;;;;;18.03;100.00;101518.97;5108524;28;20059;-53
2023/09/28 07:57:41;;;;;;;23.40;5.38;;;;;;;18.14;100.00;101519.88;5110338;28;20048;-53
2023/09/28 08:00:14;;;;;;;21.33;3.75;;;;;;;18.29;100.00;101518.53;5107704;28;20044;-53
2023/09/28 08:02:45;;;;;;;17.20;3.40;;;;;;;18.34;100.00;101532.28;5108953;28;20414;-52
2023/09/28 08:05:13;;;;;;;18.80;3.55;;;;;;;18.53;100.00;101541.34;5107751;28;20494;-51
2023/09/28 08:07:42;;;;;;;20.00;3.97;;;;;;;18.70;100.00;101542.50;5108493;28;20047;-49
2023/09/28 08:10:19;;;;;;;19.00;4.30;;;;;;;18.74;100.00;101557.22;5106630;28;20044;-52
2023/09/28 08:12:47;;;;;;;18.65;3.63;;;;;;;18.71;100.00;101544.19;5111513;28;20062;-54
2023/09/28 08:15:16;;;;;;;22.33;4.00;;;;;;;18.89;100.00;101553.22;5115094;28;20051;-52
2023/09/28 08:18:03;;;;;;;18.52;4.07;;;;;;;18.88;100.00;101556.00;5112443;28;20048;-55
2023/09/28 08:20:33;;;;;;;22.02;4.38;;;;;;;18.86;100.00;101565.94;5111804;28;20498;-53
2023/09/28 08:23:04;;;;;;;20.83;4.40;;;;;;;18.99;100.00;101563.91;5111372;28;20058;-52
2023/09/28 08:25:33;;;;;;;16.88;3.28;;;;;;;19.21;100.00;101559.28;5110258;28;20910;-51
2023/09/28 08:28:02;;;;;;;17.40;3.60;;;;;;;19.38;100.00;101563.91;5114047;28;20506;-51
2023/09/28 08:30:31;;;;;;;18.35;4.03;;;;;;;19.65;100.00;101573.06;5114379;28;20047;-51
2023/09/28 08:32:59;;;;;;;17.70;3.67;;;;;;;19.74;100.00;101569.53;5110921;28;20971;-53
2023/09/28 08:35:29;;;;;;;18.08;3.90;;;;;;;19.87;100.00;101557.75;5111103;28;20585;-52
2023/09/28 08:37:58;;;;;;;18.40;3.60;;;;;;;19.93;100.00;101559.81;5111528;28;20397;-50
2023/09/28 08:40:30;;;;;;;20.95;3.85;;;;;;;20.03;100.00;101554.47;5109847;28;20062;-51
2023/09/28 08:43:04;;;;;;;20.40;3.78;;;;;;;20.20;100.00;101559.03;5114822;28;20071;-51
2023/09/28 08:45:37;;;;;;;20.15;3.72;;;;;;;20.41;100.00;101548.16;5114809;28;20396;-53
2023/09/28 08:48:06;;;;;;;23.48;4.03;;;;;;;20.36;100.00;101553.09;5113114;28;20042;-51
2023/09/28 08:50:39;;;;;;;19.95;3.67;;;;;;;20.46;100.00;101561.03;5111230;28;20075;-51
2023/09/28 08:53:09;;;;;;;23.20;4.68;;;;;;;20.67;100.00;101566.16;5114151;28;20048;-52
2023/09/28 08:55:38;;;;;;;21.35;3.80;;;;;;;20.91;100.00;101579.00;5114487;28;20066;-54
2023/09/28 08:58:08;;;;;;;22.52;4.78;;;;;;;20.96;100.00;101580.38;5114572;28;20131;-52
2023/09/28 09:00:39;;;;;;;17.90;4.03;;;;;;;20.94;100.00;101581.38;5114495;28;20123;-52
2023/09/28 09:03:08;;;;;;;17.75;3.90;;;;;;;20.86;100.00;101575.94;5112440;28;20051;-54
2023/09/28 09:05:41;;;;;;;20.10;3.95;;;;;;;20.91;100.00;101586.16;5110884;28;20055;-53
2023/09/28 09:08:10;;;;;;;;;;;;;;;21.01;100.00;101588.78;5111796;27;20907;-51
2023/09/28 09:10:40;;;;;;;18.88;3.80;;;;;;;21.12;100.00;101591.25;5110441;28;19923;-53
2023/09/28 09:13:16;;;;;;;19.55;4.00;;;;;;;21.16;100.00;101589.09;5113029;28;20130;-54
2023/09/28 09:15:46;;;;;;;16.55;3.20;;;;;;;21.02;100.00;101593.97;5114065;28;20429;-52
2023/09/28 09:18:18;;;;;;;15.73;4.30;;;;;;;21.02;100.00;101595.81;5111113;28;20051;-54
2023/09/28 09:20:47;;;;;;;15.55;3.33;;;;;;;20.89;100.00;101598.84;5110670;28;20411;-52
2023/09/28 09:23:16;;;;;;;16.88;3.42;;;;;;;20.54;100.00;101603.91;5110628;28;20043;-51
2023/09/28 09:25:47;;;;;;;16.23;3.67;;;;;;;20.65;100.00;101602.88;5109339;28;20101;-51
2023/09/28 09:28:29;;;;;;;17.80;3.70;;;;;;;20.54;100.00;101598.56;5110280;28;20393;-54
2023/09/28 09:30:58;;;;;;;19.77;3.55;;;;;;;20.53;100.00;101593.34;5113885;28;20058;-53
2023/09/28 09:33:28;;;;;;;17.67;4.13;;;;;;;20.59;100.00;101611.50;5113694;28;20075;-52
2023/09/28 09:35:57;;;;;;;17.42;3.95;;;;;;;20.79;100.00;101614.91;5113617;28;20055;-52
2023/09/28 09:38:29;;;;;;;18.08;3.55;;;;;;;20.93;100.00;101602.91;5113423;27;20472;-54
2023/09/28 09:40:58;;;;;;;17.35;3.70;;;;;;;21.31;100.00;101605.47;5113629;28;20516;-53
2023/09/28 09:43:26;;;;;;;15.85;3.33;;;;;;;21.34;100.00;101614.03;5113526;27;20078;-54
2023/09/28 09:45:55;;;;;;;17.88;3.75;;;;;;;21.34;100.00;101615.88;5113313;28;20528;-53
2023/09/28 09:48:25;;;;;;;18.42;3.80;;;;;;;21.50;100.00;101612.50;5111463;28;20058;-52
2023/09/28 09:50:55;;;;;;;17.77;3.72;;;;;;;21.50;100.00;101607.16;5109888;28;20142;-53
2023/09/28 09:53:26;;;;;;;18.13;3.72;;;;;;;21.48;100.00;101612.66;5112407;28;20075;-52
2023/09/28 09:55:57;;;;;;;18.17;3.67;;;;;;;21.55;100.00;101602.22;5107847;28;20063;-54
2023/09/28 09:58:35;;;;;;;18.90;3.63;;;;;;;21.71;100.00;101596.16;5110947;28;20044;-52
2023/09/28 10:01:05;;;;;;;21.88;3.72;;;;;;;21.87;100.00;101601.63;5113240;28;20069;-53
2023/09/28 10:03:35;;;;;;;17.20;3.60;;;;;;;22.12;100.00;101607.97;5113266;28;20080;-54
2023/09/28 10:06:04;;;;;;;15.75;3.53;;;;;;;22.28;100.00;101607.25;5113282;28;20067;-53
2023/09/28 10:08:34;;;;;;;17.25;3.80;;;;;;;22.56;100.00;101607.06;5112818;28;20046;-56
2023/09/28 10:11:04;;;;;;;14.75;3.45;;;;;;;22.62;100.00;101605.63;5112802;28;20053;-54
2023/09/28 10:13:32;;;;;;;19.95;4.00;;;;;;;22.77;100.00;101592.44;5112808;28;20054;-53
2023/09/28 10:16:02;;;;;;;17.83;3.65;;;;;;;22.74;100.00;101603.47;5112705;28;20044;-55
2023/09/28 10:18:33;;;;;;;20.42;4.20;;;;;;;22.99;100.00;101590.13;5112624;28;20494;-54
2023/09/28 10:21:03;;;;;;;17.38;3.60;;;;;;;23.05;100.00;101593.00;5112776;28;20119;-53
2023/09/28 10:23:33;;;;;;;17.52;3.30;;;;;;;22.94;100.00;101591.47;5111443;28;20055;-54
2023/09/28 10:26:07;;;;;;;16.15;3.42;;;;;;;23.29;100.00;101599.47;5112697;28;20078;-54
2023/09/28 10:29:01;;;;;;;16.98;3.50;;;;;;;23.06;100.00;101592.00;5112754;28;20401;-54
2023/09/28 10:31:29;;;;;;;16.75;3.67;;;;;;;23.36;100.00;101588.91;5112742;28;20104;-54
2023/09/28 10:34:19;;;;;;;16.30;3.72;;;;;;;23.65;100.00;101582.19;5112440;28;20055;-54
2023/09/28 10:37:21;;;;;;;16.70;3.50;;;;;;;23.82;100.00;101585.69;5111920;28;20067;-55
2023/09/28 10:39:56;;;;;;;18.27;3.42;;;;;;;23.76;100.00;101585.41;5112580;28;20054;-54
2023/09/28 10:42:24;;;;;;;18.05;4.00;;;;;;;23.89;100.00;101584.06;5112498;28;20390;-54
2023/09/28 10:44:54;;;;;;;15.80;3.72;;;;;;;23.65;100.00;101590.25;5112112;28;20048;-53
2023/09/28 10:47:25;;;;;;;;;;;;;;;23.94;100.00;101589.75;5112430;28;20044;-53
2023/09/28 10:49:59;;;;;;;17.52;4.03;;;;;;;24.04;100.00;101590.41;5111898;28;19926;-54
2023/09/28 10:52:29;;;;;;;20.52;3.75;;;;;;;23.50;100.00;101587.41;5112353;28;20047;-54
2023/09/28 10:54:58;;;;;;;19.50;4.03;;;;;;;23.73;100.00;101601.81;5112163;28;20109;-52
2023/09/28 10:57:31;;;;;;;20.27;3.72;;;;;;;23.27;100.00;101596.09;5111971;28;20048;-51
2023/09/28 11:00:01;;;;;;;19.17;3.78;;;;;;;23.57;100.00;101609.88;5112077;28;20051;-53
2023/09/28 11:02:29;;;;;;;18.77;4.05;;;;;;;23.90;100.00;101604.53;5112134;28;20395;-53
2023/09/28 11:05:00;;;;;;;13.55;3.53;;;;;;;24.09;100.00;101603.31;5112195;28;20055;-55
2023/09/28 11:07:30;;;;;;;16.15;3.95;;;;;;;24.31;100.00;101596.41;5112009;28;20039;-52
2023/09/28 11:09:58;;;;;;;14.23;3.10;;;;;;;24.35;100.00;101608.47;5112225;28;20112;-54
2023/09/28 11:12:29;;;;;;;16.25;3.53;;;;;;;24.32;100.00;101613.34;5112058;28;20115;-54
2023/09/28 11:14:58;;;;;;;14.98;3.60;;;;;;;24.29;100.00;101617.22;5112079;28;20052;-54
2023/09/28 11:17:27;;;;;;;17.13;3.60;;;;;;;24.12;100.00;101613.75;5111895;28;20039;-53
2023/09/28 11:19:56;;;;;;;12.68;3.50;;;;;;;24.24;100.00;101608.81;5111879;28;20535;-53
2023/09/28 11:22:24;;;;;;;20.83;3.67;;;;;;;24.00;100.00;101613.25;5111803;28;20494;-54
2023/09/28 11:24:54;;;;;;;16.70;3.50;;;;;;;24.04;100.00;101621.81;5111785;28;20048;-52
2023/09/28 11:27:22;;;;;;;13.93;3.45;;;;;;;23.86;100.00;101619.25;5111742;28;20411;-52